createdAt,value
2018-08-16T00:00:56.244Z,71.73
2018-08-16T00:01:56.024Z,72.31
2018-08-16T00:02:56.542Z,72.41
2018-08-16T00:03:55.954Z,72.79
2018-08-16T00:04:56.698Z,72.89
2018-08-16T00:05:56.306Z,72.99
2018-08-16T00:06:55.775Z,72.99
2018-08-16T00:07:56.662Z,73.27
2018-08-16T00:08:56.123Z,73.27
2018-08-16T00:09:55.512Z,73.66
2018-08-16T00:11:17.644Z,73.75
2018-08-16T00:12:18.524Z,73.94
2018-08-16T00:13:18.503Z,74.23
2018-08-16T00:14:18.632Z,74.33
2018-08-16T00:15:18.454Z,74.52
2018-08-16T00:16:18.136Z,74.81
2018-08-16T00:17:40.231Z,74.62
2018-08-16T00:18:39.908Z,74.62
2018-08-16T00:19:39.541Z,75.00
2018-08-16T00:21:01.888Z,75.00
2018-08-16T00:22:02.679Z,75.10
2018-08-16T00:23:02.703Z,75.20
2018-08-16T00:24:02.194Z,75.20
2018-08-16T00:25:01.760Z,75.29
2018-08-16T00:26:02.295Z,75.20
2018-08-16T00:27:01.771Z,75.10
2018-08-16T00:28:02.332Z,75.38
2018-08-16T00:29:01.845Z,75.00
2018-08-16T00:30:01.861Z,75.10
2018-08-16T00:31:02.597Z,75.00
2018-08-16T00:32:02.047Z,75.00
2018-08-16T00:33:01.543Z,74.52
2018-08-16T00:34:02.208Z,74.33
2018-08-16T00:35:01.549Z,73.94
2018-08-16T00:36:01.944Z,73.56
2018-08-16T00:37:01.555Z,72.79
2018-08-16T00:38:01.969Z,72.41
2018-08-16T00:39:01.554Z,72.31
2018-08-16T00:40:02.146Z,72.02
2018-08-16T00:41:01.554Z,71.93
2018-08-16T00:42:23.741Z,72.12
2018-08-16T00:43:45.895Z,71.83
2018-08-16T00:44:46.361Z,71.83
2018-08-16T00:45:46.115Z,71.73
2018-08-16T00:46:46.778Z,71.73
2018-08-16T00:48:08.165Z,72.02
2018-08-16T00:49:08.985Z,71.73
2018-08-16T00:50:08.474Z,71.55
2018-08-16T00:51:08.348Z,71.45
2018-08-16T00:52:08.065Z,71.35
2018-08-16T00:53:31.967Z,71.06
2018-08-16T00:54:31.716Z,70.58
2018-08-16T00:55:53.169Z,70.17
2018-08-16T00:56:53.075Z,69.87
2018-08-16T00:57:53.708Z,69.49
2018-08-16T00:59:14.477Z,68.82
2018-08-16T01:00:36.187Z,68.73
2018-08-16T01:01:36.861Z,68.44
2018-08-16T01:02:36.637Z,68.05
2018-08-16T01:03:36.772Z,67.47
2018-08-16T01:04:36.744Z,67.00
2018-08-16T01:06:41.613Z,66.52
2018-08-16T01:07:42.698Z,66.33
2018-08-16T01:08:42.135Z,66.03
2018-08-16T01:09:41.776Z,65.94
2018-08-16T01:10:42.475Z,65.75
2018-08-16T01:11:42.349Z,65.84
2018-08-16T01:12:42.193Z,65.08
2018-08-16T01:13:41.823Z,65.08
2018-08-16T01:14:42.595Z,64.69
2018-08-16T01:15:42.531Z,64.31
2018-08-16T01:17:03.953Z,64.02
2018-08-16T01:18:04.713Z,63.64
2018-08-16T01:19:04.672Z,63.06
2018-08-16T01:20:04.408Z,62.74
2018-08-16T01:21:03.851Z,62.07
2018-08-16T01:22:04.536Z,61.98
2018-08-16T01:23:04.530Z,61.49
2018-08-16T01:24:04.103Z,61.40
2018-08-16T01:25:03.726Z,60.92
2018-08-16T01:26:04.619Z,60.53
2018-08-16T01:27:04.724Z,59.58
2018-08-16T01:28:04.378Z,59.29
2018-08-16T01:29:04.020Z,58.81
2018-08-16T01:30:04.388Z,58.62
2018-08-16T01:31:03.840Z,58.23
2018-08-16T01:32:04.763Z,57.95
2018-08-16T01:33:04.442Z,57.85
2018-08-16T01:34:04.065Z,57.37
2018-08-16T01:35:03.577Z,56.89
2018-08-16T01:36:04.089Z,56.12
2018-08-16T01:37:03.952Z,55.93
2018-08-16T01:38:03.560Z,55.26
2018-08-16T01:39:04.259Z,55.16
2018-08-16T01:40:04.047Z,54.78
2018-08-16T01:41:03.677Z,54.17
2018-08-16T01:42:04.647Z,53.99
2018-08-16T01:43:04.936Z,53.60
2018-08-16T01:44:03.960Z,52.83
2018-08-16T01:45:04.552Z,52.74
2018-08-16T01:46:04.215Z,51.87
2018-08-16T01:47:03.854Z,51.78
2018-08-16T01:48:04.403Z,51.40
2018-08-16T01:49:03.805Z,50.92
2018-08-16T01:50:04.196Z,50.43
2018-08-16T01:51:03.576Z,50.15
2018-08-16T01:52:04.248Z,49.38
2018-08-16T01:53:03.891Z,49.29
2018-08-16T01:54:03.780Z,48.71
2018-08-16T01:55:04.498Z,48.43
2018-08-16T01:56:04.215Z,48.04
2018-08-16T01:57:03.868Z,47.94
2018-08-16T01:58:03.837Z,47.85
2018-08-16T01:59:04.305Z,47.56
2018-08-16T02:00:03.918Z,46.89
2018-08-16T02:01:04.445Z,46.22
2018-08-16T02:02:04.032Z,46.22
2018-08-16T02:03:24.575Z,46.22
2018-08-16T02:04:25.493Z,45.74
2018-08-16T02:05:46.656Z,45.45
2018-08-16T02:06:47.450Z,44.97
2018-08-16T02:08:08.139Z,44.76
2018-08-16T02:09:08.720Z,44.37
2018-08-16T02:10:08.313Z,44.18
2018-08-16T02:11:08.788Z,44.18
2018-08-16T02:12:08.830Z,43.99
2018-08-16T02:13:08.745Z,43.51
2018-08-16T02:14:08.839Z,42.84
2018-08-16T02:15:08.525Z,42.46
2018-08-16T02:16:08.952Z,42.17
2018-08-16T02:17:08.625Z,41.78
2018-08-16T02:18:08.354Z,41.69
2018-08-16T02:19:29.892Z,41.31
2018-08-16T02:20:30.680Z,41.31
2018-08-16T02:21:30.338Z,41.40
2018-08-16T02:22:31.075Z,40.64
2018-08-16T02:24:14.238Z,40.54
2018-08-16T02:25:15.016Z,40.54
2018-08-16T02:26:14.717Z,40.54
2018-08-16T02:27:35.914Z,40.44
2018-08-16T02:28:36.683Z,40.35
2018-08-16T02:29:36.091Z,39.39
2018-08-16T02:30:36.518Z,39.39
2018-08-16T02:31:36.180Z,39.20
2018-08-16T02:32:36.949Z,38.62
2018-08-16T02:33:36.569Z,38.62
2018-08-16T02:34:57.386Z,38.14
2018-08-16T02:36:19.210Z,37.95
2018-08-16T02:37:19.983Z,37.66
2018-08-16T02:38:20.421Z,37.66
2018-08-16T02:39:20.138Z,37.18
2018-08-16T02:40:19.386Z,37.18
2018-08-16T02:41:41.432Z,36.99
2018-08-16T02:42:41.941Z,36.32
2018-08-16T02:44:03.357Z,36.51
2018-08-16T02:45:04.087Z,36.80
2018-08-16T02:46:03.467Z,36.99
2018-08-16T02:47:04.048Z,36.99
2018-08-16T02:48:03.581Z,36.42
2018-08-16T02:49:03.457Z,35.65
2018-08-16T02:50:03.916Z,35.46
2018-08-16T02:51:25.218Z,35.65
2018-08-16T02:52:25.651Z,35.55
2018-08-16T02:53:26.568Z,34.88
2018-08-16T02:54:47.336Z,34.59
2018-08-16T02:55:48.181Z,34.67
2018-08-16T02:57:09.678Z,34.20
2018-08-16T02:58:10.497Z,33.81
2018-08-16T02:59:52.939Z,33.14
2018-08-16T03:01:10.935Z,32.76
2018-08-16T03:02:21.439Z,32.57
2018-08-16T03:03:18.334Z,32.57
2018-08-16T03:04:18.208Z,32.28
2018-08-16T03:05:17.699Z,32.18
2018-08-16T03:06:18.423Z,32.18
2018-08-16T03:07:17.878Z,31.90
2018-08-16T03:08:17.445Z,31.90
2018-08-16T03:09:18.094Z,32.09
2018-08-16T03:10:17.774Z,31.99
2018-08-16T03:11:17.197Z,31.90
2018-08-16T03:12:17.661Z,31.90
2018-08-16T03:13:17.441Z,31.51
2018-08-16T03:14:17.821Z,31.13
2018-08-16T03:15:17.285Z,30.94
2018-08-16T03:16:17.689Z,30.94
2018-08-16T03:17:18.150Z,30.94
2018-08-16T03:18:17.957Z,30.84
2018-08-16T03:19:17.631Z,30.84
2018-08-16T03:20:18.047Z,30.84
2018-08-16T03:21:17.709Z,30.65
2018-08-16T03:22:18.183Z,30.75
2018-08-16T03:23:17.678Z,30.55
2018-08-16T03:24:18.203Z,30.55
2018-08-16T03:25:18.073Z,30.46
2018-08-16T03:26:17.575Z,30.36
2018-08-16T03:27:39.278Z,30.18
2018-08-16T03:28:39.861Z,30.08
2018-08-16T03:29:39.465Z,29.98
2018-08-16T03:31:01.443Z,29.41
2018-08-16T03:32:23.070Z,29.41
2018-08-16T03:33:23.513Z,29.60
2018-08-16T03:34:45.219Z,29.60
2018-08-16T03:35:45.733Z,29.41
2018-08-16T03:36:46.239Z,29.60
2018-08-16T03:37:45.901Z,29.60
2018-08-16T03:38:45.491Z,29.79
2018-08-16T03:39:45.991Z,29.88
2018-08-16T03:40:45.409Z,29.98
2018-08-16T03:41:45.827Z,29.79
2018-08-16T03:42:46.175Z,30.08
2018-08-16T03:43:45.693Z,30.18
2018-08-16T03:44:46.007Z,30.27
2018-08-16T03:45:45.910Z,30.46
2018-08-16T03:46:46.432Z,30.55
2018-08-16T03:47:46.346Z,30.65
2018-08-16T03:48:45.963Z,30.75
2018-08-16T03:49:45.807Z,30.75
2018-08-16T03:50:45.261Z,30.75
2018-08-16T03:51:46.288Z,30.84
2018-08-16T03:52:45.868Z,30.65
2018-08-16T03:53:45.324Z,30.46
2018-08-16T03:54:45.841Z,30.65
2018-08-16T03:55:45.383Z,30.75
2018-08-16T03:57:07.119Z,31.04
2018-08-16T03:58:07.676Z,31.23
2018-08-16T03:59:07.255Z,31.42
2018-08-16T04:00:07.740Z,31.51
2018-08-16T04:01:07.131Z,31.71
2018-08-16T04:02:07.560Z,31.90
2018-08-16T04:03:07.357Z,31.80
2018-08-16T04:04:07.920Z,31.90
2018-08-16T04:05:07.417Z,32.18
2018-08-16T04:06:08.234Z,32.47
2018-08-16T04:07:07.881Z,32.57
2018-08-16T04:08:50.343Z,32.76
2018-08-16T04:10:12.255Z,33.14
2018-08-16T04:11:12.592Z,33.33
2018-08-16T04:12:34.375Z,33.14
2018-08-16T04:13:35.384Z,32.86
2018-08-16T04:14:35.288Z,32.76
2018-08-16T04:15:34.726Z,32.86
2018-08-16T04:16:56.513Z,32.67
2018-08-16T04:17:57.537Z,32.28
2018-08-16T04:18:56.946Z,32.09
2018-08-16T04:19:57.033Z,32.18
2018-08-16T04:20:56.772Z,32.28
2018-08-16T04:21:57.281Z,32.09
2018-08-16T04:22:57.048Z,31.90
2018-08-16T04:23:56.953Z,31.80
2018-08-16T04:24:56.893Z,31.42
2018-08-16T04:25:57.649Z,31.51
2018-08-16T04:26:57.531Z,31.61
2018-08-16T04:27:57.356Z,31.51
2018-08-16T04:28:57.084Z,31.42
2018-08-16T04:29:56.878Z,31.42
2018-08-16T04:30:56.830Z,31.32
2018-08-16T04:31:58.227Z,31.51
2018-08-16T04:32:56.793Z,31.32
2018-08-16T04:33:57.703Z,31.51
2018-08-16T04:34:57.582Z,31.71
2018-08-16T04:35:57.477Z,31.80
2018-08-16T04:36:57.270Z,31.80
2018-08-16T04:37:56.919Z,32.09
2018-08-16T04:38:57.666Z,32.18
2018-08-16T04:40:19.324Z,32.57
2018-08-16T04:41:23.440Z,32.76
2018-08-16T04:42:18.936Z,32.95
2018-08-16T04:43:19.694Z,33.33
2018-08-16T04:44:19.250Z,33.62
2018-08-16T04:45:40.922Z,33.81
2018-08-16T04:46:44.497Z,33.81
2018-08-16T04:48:03.116Z,34.00
2018-08-16T04:49:03.058Z,34.20
2018-08-16T04:50:03.030Z,34.48
2018-08-16T04:51:03.009Z,34.69
2018-08-16T04:52:02.840Z,34.88
2018-08-16T04:53:03.033Z,35.27
2018-08-16T04:54:25.897Z,35.75
2018-08-16T04:55:27.019Z,36.04
2018-08-16T04:56:25.531Z,36.42
2018-08-16T04:57:25.503Z,36.51
2018-08-16T04:58:25.658Z,37.18
2018-08-16T05:00:14.646Z,38.05
2018-08-16T05:01:15.861Z,38.34
2018-08-16T05:02:15.079Z,38.62
2018-08-16T05:03:16.448Z,39.10
2018-08-16T05:04:15.102Z,40.35
2018-08-16T05:05:14.920Z,41.21
2018-08-16T05:06:14.700Z,41.69
2018-08-16T05:07:15.511Z,42.17
2018-08-16T05:08:15.405Z,43.32
2018-08-16T05:09:15.234Z,44.18
2018-08-16T05:10:15.154Z,45.36
2018-08-16T05:11:16.548Z,45.07
2018-08-16T05:12:15.050Z,45.36
2018-08-16T05:13:14.958Z,47.27
2018-08-16T05:14:14.802Z,48.23
2018-08-16T05:15:36.323Z,48.33
2018-08-16T05:16:36.977Z,48.80
2018-08-16T05:17:58.393Z,49.67
2018-08-16T05:18:57.965Z,50.24
2018-08-16T05:19:58.676Z,50.82
2018-08-16T05:20:58.296Z,50.82
2018-08-16T05:21:58.933Z,51.87
2018-08-16T05:22:58.621Z,52.26
2018-08-16T05:23:58.470Z,52.93
2018-08-16T05:24:58.151Z,53.41
2018-08-16T05:25:58.626Z,53.79
2018-08-16T05:26:58.563Z,54.68
2018-08-16T05:27:58.282Z,57.18
2018-08-16T05:28:58.274Z,57.46
2018-08-16T05:29:59.097Z,59.19
2018-08-16T05:30:58.796Z,59.48
2018-08-16T05:31:59.553Z,60.44
2018-08-16T05:32:58.419Z,60.35
2018-08-16T05:33:57.892Z,61.40
2018-08-16T05:34:58.632Z,64.37
2018-08-16T05:36:19.897Z,66.61
2018-08-16T05:37:20.446Z,67.86
2018-08-16T05:38:20.625Z,68.34
2018-08-16T05:39:20.457Z,73.08
2018-08-16T05:40:20.272Z,75.96
2018-08-16T05:41:20.228Z,76.92
2018-08-16T05:42:20.183Z,80.38
2018-08-16T05:43:19.871Z,81.09
2018-08-16T05:44:20.448Z,84.55
2018-08-16T05:45:20.804Z,85.13
2018-08-16T05:46:20.379Z,88.53
2018-08-16T05:47:20.024Z,87.96
2018-08-16T05:48:20.717Z,88.63
2018-08-16T05:49:42.033Z,90.45
2018-08-16T05:51:04.633Z,91.85
2018-08-16T05:51:47.078Z,92.71
2018-08-16T05:53:31.218Z,94.06
2018-08-16T05:54:32.388Z,95.70
2018-08-16T05:55:32.038Z,98.24
2018-08-16T05:56:31.622Z,99.49
2018-08-16T05:57:31.299Z,99.99
2018-08-16T05:58:31.102Z,99.99
2018-08-16T05:59:31.804Z,99.99
2018-08-16T06:00:31.442Z,99.99
2018-08-16T06:01:31.118Z,99.99
2018-08-16T06:02:31.860Z,99.99
2018-08-16T06:03:31.416Z,99.99
2018-08-16T06:04:31.199Z,99.99
2018-08-16T06:05:31.834Z,99.99
2018-08-16T06:06:31.451Z,99.99
2018-08-16T06:07:32.067Z,99.99
2018-08-16T06:08:32.364Z,99.99
2018-08-16T06:09:31.952Z,99.99
2018-08-16T06:10:31.421Z,99.99
2018-08-16T06:11:31.285Z,99.99
2018-08-16T06:12:31.938Z,99.99
2018-08-16T06:13:31.742Z,99.99
2018-08-16T06:14:31.521Z,99.99
2018-08-16T06:15:31.581Z,99.99
2018-08-16T06:16:31.378Z,99.99
2018-08-16T06:17:52.572Z,99.99
2018-08-16T06:18:53.278Z,99.99
2018-08-16T06:20:14.868Z,99.99
2018-08-16T06:21:15.564Z,99.99
2018-08-16T06:22:15.296Z,99.99
2018-08-16T06:23:14.833Z,99.99
2018-08-16T06:24:36.767Z,99.99
2018-08-16T06:25:37.447Z,99.99
2018-08-16T06:26:37.245Z,99.99
2018-08-16T06:27:58.475Z,99.99
2018-08-16T06:28:59.323Z,99.99
2018-08-16T06:29:58.966Z,99.99
2018-08-16T06:30:58.829Z,99.99
2018-08-16T06:31:58.462Z,99.99
2018-08-16T06:32:59.519Z,99.99
2018-08-16T06:33:59.249Z,99.99
2018-08-16T06:34:58.891Z,99.99
2018-08-16T06:35:58.925Z,99.99
2018-08-16T06:36:58.453Z,99.99
2018-08-16T06:37:59.350Z,99.99
2018-08-16T06:38:59.304Z,99.99
2018-08-16T06:39:59.165Z,99.99
2018-08-16T06:40:59.772Z,99.99
2018-08-16T06:41:58.847Z,99.99
2018-08-16T06:43:20.365Z,99.99
2018-08-16T06:44:41.880Z,99.99
2018-08-16T06:45:42.738Z,99.99
2018-08-16T06:47:03.906Z,99.99
2018-08-16T06:48:05.098Z,99.99
2018-08-16T06:49:03.921Z,99.99
2018-08-16T06:50:29.324Z,96.84
2018-08-16T06:51:29.572Z,97.28
2018-08-16T06:52:29.605Z,95.92
2018-08-16T06:53:29.625Z,95.25
2018-08-16T06:54:29.385Z,95.20
2018-08-16T06:55:29.024Z,96.17
2018-08-16T06:56:30.472Z,97.57
2018-08-16T06:57:29.464Z,97.08
2018-08-16T06:58:31.052Z,98.15
2018-08-16T06:59:31.817Z,98.35
2018-08-16T07:00:29.694Z,99.41
2018-08-16T07:01:29.953Z,99.94
2018-08-16T07:02:29.672Z,99.99
2018-08-16T07:03:29.337Z,99.99
2018-08-16T07:04:29.031Z,99.99
2018-08-16T07:06:05.468Z,99.99
2018-08-16T07:07:05.404Z,99.99
2018-08-16T07:08:05.453Z,99.99
2018-08-16T07:09:05.350Z,99.99
2018-08-16T07:10:06.297Z,99.99
2018-08-16T07:11:06.326Z,99.99
2018-08-16T07:12:05.431Z,99.99
2018-08-16T07:13:05.653Z,99.99
2018-08-16T07:14:49.016Z,99.99
2018-08-16T07:15:49.711Z,99.99
2018-08-16T07:16:49.495Z,99.99
2018-08-16T07:17:53.470Z,99.99
2018-08-16T07:18:49.051Z,99.99
2018-08-16T07:19:50.195Z,99.99
2018-08-16T07:20:49.159Z,99.99
2018-08-16T07:21:50.459Z,99.99
2018-08-16T07:22:51.087Z,99.99
2018-08-16T07:23:49.872Z,99.99
2018-08-16T07:24:49.570Z,99.99
2018-08-16T07:25:49.380Z,99.99
2018-08-16T07:26:49.122Z,99.99
2018-08-16T07:27:50.285Z,99.99
2018-08-16T07:28:50.443Z,99.99
2018-08-16T07:29:49.408Z,99.99
2018-08-16T07:30:49.199Z,99.99
2018-08-16T07:31:50.278Z,99.99
2018-08-16T07:32:49.549Z,99.99
2018-08-16T07:33:49.569Z,99.99
2018-08-16T07:34:49.088Z,99.99
2018-08-16T07:35:49.776Z,99.99
2018-08-16T07:36:49.756Z,99.99
2018-08-16T07:37:49.513Z,99.99
2018-08-16T07:40:16.397Z,99.99
2018-08-16T07:41:17.082Z,99.99
2018-08-16T07:42:16.749Z,99.41
2018-08-16T07:43:38.751Z,99.50
2018-08-16T07:44:38.723Z,99.99
2018-08-16T07:45:38.919Z,99.50
2018-08-16T07:46:38.462Z,99.41
2018-08-16T07:47:39.452Z,98.73
2018-08-16T07:48:39.843Z,99.55
2018-08-16T07:49:38.941Z,98.30
2018-08-16T07:50:39.275Z,98.30
2018-08-16T07:51:39.580Z,99.21
2018-08-16T07:53:00.161Z,93.99
2018-08-16T07:54:00.873Z,95.06
2018-08-16T07:55:00.484Z,96.89
2018-08-16T07:56:01.295Z,96.46
2018-08-16T07:57:01.488Z,94.04
2018-08-16T07:58:07.176Z,95.78
2018-08-16T07:59:01.128Z,95.20
2018-08-16T08:00:11.688Z,96.07
2018-08-16T08:01:23.187Z,95.92
2018-08-16T08:02:22.801Z,95.83
2018-08-16T08:03:44.071Z,91.22
2018-08-16T08:04:44.845Z,88.71
2018-08-16T08:05:44.976Z,89.00
2018-08-16T08:06:44.791Z,87.06
2018-08-16T08:07:44.680Z,85.94
2018-08-16T08:08:44.999Z,85.21
2018-08-16T08:09:45.197Z,83.56
2018-08-16T08:10:44.372Z,83.22
2018-08-16T08:11:44.542Z,81.02
2018-08-16T08:12:44.520Z,81.06
2018-08-16T08:13:44.512Z,80.46
2018-08-16T08:14:44.214Z,77.70
2018-08-16T08:15:45.247Z,76.87
2018-08-16T08:16:44.395Z,75.93
2018-08-16T08:17:44.021Z,74.08
2018-08-16T08:18:44.596Z,74.22
2018-08-16T08:19:44.558Z,73.28
2018-08-16T08:20:44.460Z,72.31
2018-08-16T08:21:44.361Z,70.36
2018-08-16T08:23:06.097Z,70.78
2018-08-16T08:24:05.870Z,71.30
2018-08-16T08:25:05.781Z,70.75
2018-08-16T08:26:28.560Z,69.62
2018-08-16T08:27:29.728Z,68.74
2018-08-16T08:28:28.619Z,67.99
2018-08-16T08:29:30.162Z,67.83
2018-08-16T08:30:29.020Z,66.08
2018-08-16T08:31:28.840Z,65.40
2018-08-16T08:32:28.654Z,65.75
2018-08-16T08:33:29.734Z,65.95
2018-08-16T08:34:28.499Z,65.26
2018-08-16T08:35:29.197Z,66.47
2018-08-16T08:36:29.255Z,65.62
2018-08-16T08:37:28.943Z,64.26
2018-08-16T08:38:28.858Z,64.29
2018-08-16T08:39:28.657Z,64.61
2018-08-16T08:40:29.944Z,62.99
2018-08-16T08:41:29.125Z,62.01
2018-08-16T08:42:50.377Z,61.82
2018-08-16T08:43:51.143Z,62.60
2018-08-16T08:44:50.952Z,62.70
2018-08-16T08:46:55.688Z,62.11
2018-08-16T08:47:56.758Z,62.30
2018-08-16T08:48:56.791Z,62.04
2018-08-16T08:49:56.642Z,60.86
2018-08-16T08:51:39.448Z,60.21
2018-08-16T08:52:40.202Z,60.08
2018-08-16T08:53:40.369Z,60.94
2018-08-16T08:54:40.565Z,61.23
2018-08-16T08:55:39.875Z,61.13
2018-08-16T08:56:39.597Z,60.77
2018-08-16T08:57:42.827Z,60.74
2018-08-16T08:59:50.975Z,60.25
2018-08-16T09:00:49.048Z,60.74
2018-08-16T09:01:49.064Z,60.77
2018-08-16T09:02:49.208Z,60.71
2018-08-16T09:03:48.940Z,61.10
2018-08-16T09:04:50.736Z,61.13
2018-08-16T09:05:49.636Z,60.80
2018-08-16T09:07:10.383Z,59.85
2018-08-16T09:50:23.143Z,54.75
2018-08-16T09:51:23.047Z,53.50
2018-08-16T09:52:22.939Z,52.30
2018-08-16T09:53:22.700Z,51.98
2018-08-16T09:54:22.557Z,52.47
2018-08-16T09:55:23.751Z,52.96
2018-08-16T09:56:22.484Z,52.76
2018-08-16T09:57:44.947Z,53.65
2018-08-16T09:58:45.457Z,52.86
2018-08-16T09:59:45.284Z,52.89
2018-08-16T10:00:58.789Z,53.60
2018-08-16T10:01:45.589Z,52.45
2018-08-16T10:02:45.507Z,52.38
2018-08-16T10:03:45.127Z,51.59
2018-08-16T10:04:44.894Z,50.68
2018-08-16T10:05:45.693Z,51.98
2018-08-16T10:06:45.248Z,50.39
2018-08-16T10:07:45.066Z,51.54
2018-08-16T10:08:45.350Z,51.64
2018-08-16T10:09:46.424Z,52.55
2018-08-16T10:10:45.256Z,51.17
2018-08-16T10:11:45.418Z,51.07
2018-08-16T10:12:45.145Z,51.30
2018-08-16T10:13:44.902Z,51.20
2018-08-16T10:14:45.623Z,50.73
2018-08-16T10:15:45.256Z,50.07
2018-08-16T10:16:45.175Z,49.06
2018-08-16T10:17:45.036Z,49.46
2018-08-16T10:18:44.755Z,49.75
2018-08-16T10:19:45.485Z,49.63
2018-08-16T10:20:45.356Z,49.99
2018-08-16T10:21:45.396Z,50.93
2018-08-16T10:22:45.082Z,51.49
2018-08-16T10:23:44.992Z,52.74
2018-08-16T10:24:45.652Z,53.26
2018-08-16T10:25:45.407Z,54.24
2018-08-16T10:26:45.232Z,52.57
2018-08-16T10:27:45.373Z,52.11
2018-08-16T10:28:45.095Z,53.44
2018-08-16T10:29:44.811Z,51.40
2018-08-16T10:30:45.621Z,51.22
2018-08-16T10:32:06.934Z,50.07
2018-08-16T10:33:07.604Z,49.77
2018-08-16T10:34:07.340Z,49.80
2018-08-16T10:35:28.768Z,49.95
2018-08-16T10:36:28.944Z,49.73
2018-08-16T10:37:28.964Z,49.80
2018-08-16T10:38:29.070Z,50.49
2018-08-16T10:39:28.713Z,50.49
2018-08-16T10:40:28.630Z,50.12
2018-08-16T10:41:29.783Z,49.80
2018-08-16T10:42:28.510Z,50.09
2018-08-16T10:43:29.263Z,49.80
2018-08-16T10:44:28.912Z,50.37
2018-08-16T10:45:28.477Z,50.42
2018-08-16T10:46:29.845Z,50.42
2018-08-16T10:47:28.863Z,50.83
2018-08-16T10:48:28.668Z,50.34
2018-08-16T10:49:28.394Z,50.21
2018-08-16T10:50:29.306Z,50.04
2018-08-16T10:51:29.314Z,50.26
2018-08-16T10:52:29.014Z,49.30
2018-08-16T10:53:29.172Z,48.32
2018-08-16T10:54:50.693Z,48.35
2018-08-16T10:55:53.451Z,47.53
2018-08-16T10:57:14.307Z,48.37
2018-08-16T10:58:14.292Z,48.25
2018-08-16T10:59:14.427Z,49.04
2018-08-16T11:00:13.611Z,49.75
2018-08-16T11:01:16.510Z,49.51
2018-08-16T11:02:13.338Z,49.70
2018-08-16T11:03:13.211Z,50.59
2018-08-16T11:04:13.109Z,49.90
2018-08-16T11:05:13.845Z,49.41
2018-08-16T11:06:14.669Z,48.94
2018-08-16T11:07:13.849Z,48.57
2018-08-16T11:08:13.624Z,49.46
2018-08-16T11:09:13.289Z,48.77
2018-08-16T11:10:14.080Z,49.16
2018-08-16T11:11:14.333Z,47.91
2018-08-16T11:12:14.194Z,48.59
2018-08-16T11:13:14.579Z,49.01
2018-08-16T11:14:13.571Z,47.26
2018-08-16T11:15:13.415Z,47.53
2018-08-16T11:16:13.172Z,48.00
2018-08-16T11:17:13.762Z,49.43
2018-08-16T11:18:14.035Z,48.74
2018-08-16T11:19:13.652Z,49.04
2018-08-16T11:20:13.416Z,49.95
2018-08-16T11:21:13.116Z,48.99
2018-08-16T11:22:13.766Z,48.67
2018-08-16T11:23:56.482Z,48.49
2018-08-16T11:24:57.624Z,48.47
2018-08-16T11:26:19.272Z,48.47
2018-08-16T11:27:19.456Z,48.10
2018-08-16T11:28:19.278Z,47.61
2018-08-16T11:29:40.434Z,48.39
2018-08-16T11:30:41.583Z,47.88
2018-08-16T11:31:41.194Z,47.58
2018-08-16T11:32:40.753Z,47.98
2018-08-16T11:33:40.603Z,48.30
2018-08-16T11:34:41.385Z,48.32
2018-08-16T11:35:41.747Z,48.05
2018-08-16T11:36:41.301Z,46.89
2018-08-16T11:37:41.416Z,46.67
2018-08-16T11:38:41.158Z,46.75
2018-08-16T11:39:40.845Z,47.75
2018-08-16T11:40:40.811Z,47.28
2018-08-16T11:41:41.000Z,48.35
2018-08-16T11:42:40.809Z,47.56
2018-08-16T11:43:40.840Z,47.66
2018-08-16T11:44:40.622Z,46.97
2018-08-16T11:45:41.224Z,46.75
2018-08-16T11:46:40.996Z,47.24
2018-08-16T11:47:40.967Z,48.37
2018-08-16T11:48:40.682Z,47.11
2018-08-16T11:49:41.550Z,45.93
2018-08-16T11:50:41.597Z,45.73
2018-08-16T11:51:42.074Z,45.83
2018-08-16T11:52:40.843Z,46.52
2018-08-16T11:53:40.959Z,46.03
2018-08-16T11:54:40.917Z,46.34
2018-08-16T11:55:40.854Z,45.56
2018-08-16T11:56:41.594Z,45.08
2018-08-16T11:58:04.117Z,45.48
2018-08-16T11:59:05.333Z,44.32
2018-08-16T12:00:04.989Z,45.18
2018-08-16T12:01:28.533Z,45.40
2018-08-16T12:02:50.495Z,44.22
2018-08-16T12:04:25.360Z,44.64
2018-08-16T12:05:20.036Z,43.82
2018-08-16T12:06:21.074Z,43.82
2018-08-16T12:07:20.207Z,43.80
2018-08-16T12:08:20.474Z,43.88
2018-08-16T12:09:21.652Z,44.76
2018-08-16T12:10:20.273Z,45.16
2018-08-16T12:11:40.643Z,44.65
2018-08-16T12:12:41.821Z,44.45
2018-08-16T12:13:42.980Z,44.70
2018-08-16T12:15:04.955Z,45.90
2018-08-16T12:16:04.969Z,46.69
2018-08-16T12:17:05.143Z,45.24
2018-08-16T12:18:05.806Z,45.08
2018-08-16T12:19:04.958Z,45.08
2018-08-16T12:20:27.628Z,45.08
2018-08-16T12:21:26.977Z,45.83
2018-08-16T12:22:26.970Z,46.03
2018-08-16T12:23:26.901Z,45.39
2018-08-16T12:24:30.432Z,45.59
2018-08-16T12:25:27.072Z,45.84
2018-08-16T12:26:27.136Z,46.72
2018-08-16T12:27:27.323Z,47.22
2018-08-16T12:28:27.257Z,45.94
2018-08-16T12:29:27.248Z,46.01
2018-08-16T12:30:27.776Z,46.88
2018-08-16T12:31:27.461Z,47.93
2018-08-16T12:32:27.881Z,48.08
2018-08-16T12:33:26.915Z,47.88
2018-08-16T12:34:27.204Z,47.31
2018-08-16T12:36:12.872Z,46.43
2018-08-16T12:37:34.787Z,47.49
2018-08-16T12:38:35.005Z,47.02
2018-08-16T12:39:57.022Z,45.92
2018-08-16T12:40:57.554Z,47.39
2018-08-16T12:41:57.549Z,47.00
2018-08-16T12:42:57.879Z,47.49
2018-08-16T12:43:57.681Z,47.41
2018-08-16T12:44:58.304Z,46.70
2018-08-16T12:45:58.806Z,46.50
2018-08-16T12:46:57.687Z,46.28
2018-08-16T12:47:58.763Z,46.50
2018-08-16T12:48:57.356Z,47.61
2018-08-16T12:49:56.934Z,47.02
2018-08-16T12:50:58.615Z,47.73
2018-08-16T12:51:57.921Z,46.84
2018-08-16T12:52:57.823Z,46.37
2018-08-16T12:53:57.584Z,46.67
2018-08-16T12:54:57.719Z,45.78
2018-08-16T12:55:58.587Z,44.29
2018-08-16T12:56:57.420Z,44.76
2018-08-16T12:58:05.138Z,45.35
2018-08-16T12:58:57.071Z,45.76
2018-08-16T13:00:01.837Z,46.97
2018-08-16T13:01:23.435Z,46.30
2018-08-16T13:02:21.192Z,46.03
2018-08-16T13:03:21.891Z,44.21
2018-08-16T13:05:05.675Z,45.86
2018-08-16T13:06:05.407Z,44.90
2018-08-16T13:07:06.063Z,44.51
2018-08-16T13:08:06.071Z,44.60
2018-08-16T13:09:06.152Z,44.29
2018-08-16T13:10:05.931Z,45.86
2018-08-16T13:11:05.977Z,44.88
2018-08-16T13:12:06.166Z,44.38
2018-08-16T13:13:06.355Z,44.80
2018-08-16T13:14:06.161Z,44.72
2018-08-16T13:15:06.124Z,44.43
2018-08-16T13:16:06.042Z,43.52
2018-08-16T13:17:06.084Z,43.70
2018-08-16T13:18:06.058Z,44.38
2018-08-16T13:19:05.890Z,44.78
2018-08-16T13:20:06.163Z,44.07
2018-08-16T13:21:06.315Z,45.35
2018-08-16T13:22:05.288Z,45.94
2018-08-16T13:23:10.037Z,46.53
2018-08-16T13:24:09.508Z,45.37
2018-08-16T13:25:05.725Z,46.28
2018-08-16T13:26:05.870Z,46.37
2018-08-16T13:27:06.362Z,45.09
2018-08-16T13:28:05.245Z,45.00
2018-08-16T13:29:06.074Z,44.70
2018-08-16T13:30:05.723Z,44.19
2018-08-16T13:31:05.612Z,44.17
2018-08-16T13:32:05.763Z,45.42
2018-08-16T13:33:05.847Z,46.11
2018-08-16T13:34:07.024Z,47.41
2018-08-16T13:35:06.181Z,46.72
2018-08-16T13:36:06.343Z,45.17
2018-08-16T13:37:05.872Z,44.56
2018-08-16T13:38:05.612Z,44.85
2018-08-16T13:39:08.949Z,45.54
2018-08-16T13:40:05.702Z,45.94
2018-08-16T13:41:08.499Z,45.64
2018-08-16T13:42:07.969Z,44.66
2018-08-16T13:43:06.781Z,44.36
2018-08-16T13:44:05.948Z,44.46
2018-08-16T13:45:11.178Z,45.74
2018-08-16T13:46:05.969Z,45.84
2018-08-16T13:47:06.065Z,45.54
2018-08-16T13:48:05.816Z,46.60
2018-08-16T13:49:06.769Z,46.41
2018-08-16T13:50:05.876Z,46.28
2018-08-16T13:51:27.405Z,45.18
2018-08-16T13:52:28.044Z,45.48
2018-08-16T13:53:28.047Z,47.17
2018-08-16T13:54:27.964Z,47.19
2018-08-16T13:55:27.967Z,45.81
2018-08-16T13:56:50.194Z,46.31
2018-08-16T13:58:13.348Z,47.41
2018-08-16T13:59:13.949Z,46.23
2018-08-16T14:00:35.445Z,46.92
2018-08-16T14:01:36.375Z,45.52
2018-08-16T14:02:36.458Z,46.28
2018-08-16T14:03:36.197Z,47.00
2018-08-16T14:04:36.280Z,46.68
2018-08-16T14:06:43.418Z,47.36
2018-08-16T14:08:03.973Z,46.68
2018-08-16T14:09:04.655Z,45.60
2018-08-16T14:10:04.749Z,46.95
2018-08-16T14:11:05.313Z,47.34
2018-08-16T14:12:04.292Z,47.05
2018-08-16T14:13:04.610Z,46.73
2018-08-16T14:14:05.056Z,47.22
2018-08-16T14:15:05.674Z,47.32
2018-08-16T14:16:06.020Z,46.75
2018-08-16T14:17:04.469Z,47.74
2018-08-16T14:18:04.681Z,47.15